sensor_id;sensor_type;location;lat;lon;timestamp;pressure;altitude;pressure_sealevel;temperature;humidity
12799;BME280;19250;42.646;26.980;2023-11-22T00:02:18;98356.78;;;14.08;100.00
12799;BME280;19250;42.646;26.980;2023-11-22T00:04:46;98369.06;;;13.96;100.00
12799;BME280;19250;42.646;26.980;2023-11-22T00:07:13;98365.34;;;13.91;100.00
12799;BME280;19250;42.646;26.980;2023-11-22T00:09:40;98363.56;;;13.77;100.00
12799;BME280;19250;42.646;26.980;2023-11-22T00:12:07;98373.16;;;13.64;100.00
12799;BME280;19250;42.646;26.980;2023-11-22T00:14:35;98361.22;;;13.67;100.00
12799;BME280;19250;42.646;26.980;2023-11-22T00:17:03;98363.25;;;13.65;100.00
12799;BME280;19250;42.646;26.980;2023-11-22T00:19:30;98360.03;;;13.70;100.00
12799;BME280;19250;42.646;26.980;2023-11-22T00:21:58;98367.69;;;13.79;100.00
12799;BME280;19250;42.646;26.980;2023-11-22T00:24:25;98370.94;;;13.96;100.00
12799;BME280;19250;42.646;26.980;2023-11-22T00:26:52;98368.97;;;13.83;100.00
12799;BME280;19250;42.646;26.980;2023-11-22T00:29:19;98369.84;;;13.62;100.00
12799;BME280;19250;42.646;26.980;2023-11-22T00:31:46;98377.91;;;13.20;100.00
12799;BME280;19250;42.646;26.980;2023-11-22T00:34:14;98366.09;;;13.00;100.00
12799;BME280;19250;42.646;26.980;2023-11-22T00:36:42;98373.09;;;12.80;100.00
12799;BME280;19250;42.646;26.980;2023-11-22T00:39:09;98368.50;;;12.74;100.00
12799;BME280;19250;42.646;26.980;2023-11-22T00:41:38;98370.78;;;12.77;100.00
12799;BME280;19250;42.646;26.980;2023-11-22T00:44:05;98367.22;;;13.05;100.00
12799;BME280;19250;42.646;26.980;2023-11-22T00:46:32;98357.25;;;13.14;100.00
12799;BME280;19250;42.646;26.980;2023-11-22T00:48:59;98356.97;;;13.09;100.00
12799;BME280;19250;42.646;26.980;2023-11-22T00:51:28;98353.16;;;13.03;100.00
12799;BME280;19250;42.646;26.980;2023-11-22T00:53:56;98348.47;;;13.05;100.00
12799;BME280;19250;42.646;26.980;2023-11-22T00:56:23;98357.50;;;12.83;100.00
12799;BME280;19250;42.646;26.980;2023-11-22T00:58:50;98349.91;;;12.87;100.00
12799;BME280;19250;42.646;26.980;2023-11-22T01:01:18;98349.38;;;13.13;100.00
12799;BME280;19250;42.646;26.980;2023-11-22T01:03:45;98353.84;;;13.05;100.00
12799;BME280;19250;42.646;26.980;2023-11-22T01:06:13;98346.97;;;13.18;100.00
12799;BME280;19250;42.646;26.980;2023-11-22T01:08:41;98348.47;;;13.05;100.00
12799;BME280;19250;42.646;26.980;2023-11-22T01:11:08;98350.28;;;13.20;100.00
12799;BME280;19250;42.646;26.980;2023-11-22T01:13:35;98353.59;;;13.43;100.00
12799;BME280;19250;42.646;26.980;2023-11-22T01:16:06;98354.72;;;13.55;100.00
12799;BME280;19250;42.646;26.980;2023-11-22T01:18:33;98352.97;;;13.41;100.00
12799;BME280;19250;42.646;26.980;2023-11-22T01:21:00;98345.31;;;13.38;100.00
12799;BME280;19250;42.646;26.980;2023-11-22T01:23:27;98351.06;;;13.14;100.00
12799;BME280;19250;42.646;26.980;2023-11-22T01:25:56;98343.44;;;12.96;100.00
12799;BME280;19250;42.646;26.980;2023-11-22T01:28:23;98343.59;;;12.94;100.00
12799;BME280;19250;42.646;26.980;2023-11-22T01:30:52;98339.78;;;13.03;100.00
12799;BME280;19250;42.646;26.980;2023-11-22T01:33:19;98337.91;;;12.62;100.00
12799;BME280;19250;42.646;26.980;2023-11-22T01:35:46;98341.44;;;12.04;100.00
12799;BME280;19250;42.646;26.980;2023-11-22T01:38:13;98336.38;;;11.94;100.00
12799;BME280;19250;42.646;26.980;2023-11-22T01:40:43;98325.59;;;12.17;100.00
12799;BME280;19250;42.646;26.980;2023-11-22T01:43:14;98322.81;;;12.39;100.00
12799;BME280;19250;42.646;26.980;2023-11-22T01:45:41;98320.09;;;12.69;100.00
12799;BME280;19250;42.646;26.980;2023-11-22T01:48:09;98315.50;;;12.63;100.00
12799;BME280;19250;42.646;26.980;2023-11-22T01:50:37;98316.66;;;12.60;100.00
12799;BME280;19250;42.646;26.980;2023-11-22T01:53:05;98306.50;;;12.70;100.00
12799;BME280;19250;42.646;26.980;2023-11-22T01:55:32;98314.94;;;12.52;100.00
12799;BME280;19250;42.646;26.980;2023-11-22T01:57:59;98307.00;;;12.59;100.00
12799;BME280;19250;42.646;26.980;2023-11-22T02:00:28;98308.03;;;12.58;100.00
12799;BME280;19250;42.646;26.980;2023-11-22T02:02:58;98303.16;;;12.32;100.00
12799;BME280;19250;42.646;26.980;2023-11-22T02:05:25;98304.00;;;12.47;100.00
12799;BME280;19250;42.646;26.980;2023-11-22T02:07:52;98295.69;;;12.42;100.00
12799;BME280;19250;42.646;26.980;2023-11-22T02:10:19;98293.97;;;12.20;100.00
12799;BME280;19250;42.646;26.980;2023-11-22T02:12:46;98311.94;;;12.12;100.00
12799;BME280;19250;42.646;26.980;2023-11-22T02:15:13;98315.28;;;12.14;100.00
12799;BME280;19250;42.646;26.980;2023-11-22T02:17:42;98314.44;;;12.28;100.00
12799;BME280;19250;42.646;26.980;2023-11-22T02:20:10;98318.25;;;12.54;100.00
12799;BME280;19250;42.646;26.980;2023-11-22T02:22:42;98310.44;;;12.53;100.00
12799;BME280;19250;42.646;26.980;2023-11-22T02:25:10;98311.41;;;12.67;100.00
12799;BME280;19250;42.646;26.980;2023-11-22T02:27:37;98324.31;;;12.63;100.00
12799;BME280;19250;42.646;26.980;2023-11-22T02:30:05;98319.16;;;12.62;100.00
12799;BME280;19250;42.646;26.980;2023-11-22T02:32:33;98325.84;;;12.72;100.00
12799;BME280;19250;42.646;26.980;2023-11-22T02:35:00;98318.13;;;12.77;100.00
12799;BME280;19250;42.646;26.980;2023-11-22T02:37:27;98306.50;;;12.70;100.00
12799;BME280;19250;42.646;26.980;2023-11-22T02:39:55;98305.97;;;12.60;100.00
12799;BME280;19250;42.646;26.980;2023-11-22T02:42:25;98310.06;;;12.56;100.00
12799;BME280;19250;42.646;26.980;2023-11-22T02:44:52;98306.06;;;12.67;100.00
12799;BME280;19250;42.646;26.980;2023-11-22T02:47:19;98314.41;;;12.78;100.00
12799;BME280;19250;42.646;26.980;2023-11-22T02:49:46;98319.25;;;12.68;100.00
12799;BME280;19250;42.646;26.980;2023-11-22T02:52:14;98321.34;;;12.73;100.00
12799;BME280;19250;42.646;26.980;2023-11-22T02:54:42;98309.84;;;12.57;100.00
12799;BME280;19250;42.646;26.980;2023-11-22T02:57:10;98300.94;;;12.50;100.00
12799;BME280;19250;42.646;26.980;2023-11-22T02:59:42;98302.41;;;12.53;100.00
12799;BME280;19250;42.646;26.980;2023-11-22T03:02:09;98306.50;;;12.70;100.00
12799;BME280;19250;42.646;26.980;2023-11-22T03:04:36;98311.00;;;12.48;100.00
12799;BME280;19250;42.646;26.980;2023-11-22T03:07:04;98313.78;;;12.40;100.00
12799;BME280;19250;42.646;26.980;2023-11-22T03:09:31;98312.81;;;12.63;100.00
12799;BME280;19250;42.646;26.980;2023-11-22T03:11:58;98315.59;;;12.54;100.00
12799;BME280;19250;42.646;26.980;2023-11-22T03:14:26;98320.84;;;12.48;100.00
12799;BME280;19250;42.646;26.980;2023-11-22T03:16:54;98308.22;;;12.57;100.00
12799;BME280;19250;42.646;26.980;2023-11-22T03:19:21;98310.69;;;12.58;100.00
12799;BME280;19250;42.646;26.980;2023-11-22T03:21:49;98309.16;;;12.49;100.00
12799;BME280;19250;42.646;26.980;2023-11-22T03:24:16;98316.00;;;12.22;100.00
12799;BME280;19250;42.646;26.980;2023-11-22T03:26:43;98313.81;;;12.26;100.00
12799;BME280;19250;42.646;26.980;2023-11-22T03:29:10;98318.47;;;12.38;100.00
12799;BME280;19250;42.646;26.980;2023-11-22T03:31:37;98319.38;;;12.45;100.00
12799;BME280;19250;42.646;26.980;2023-11-22T03:34:07;98319.78;;;12.28;100.00
12799;BME280;19250;42.646;26.980;2023-11-22T03:36:34;98322.72;;;12.33;100.00
12799;BME280;19250;42.646;26.980;2023-11-22T03:39:00;98317.53;;;12.46;100.00
12799;BME280;19250;42.646;26.980;2023-11-22T03:41:28;98316.25;;;12.42;100.00
12799;BME280;19250;42.646;26.980;2023-11-22T03:43:55;98320.63;;;12.28;100.00
12799;BME280;19250;42.646;26.980;2023-11-22T03:46:22;98320.88;;;12.33;100.00
12799;BME280;19250;42.646;26.980;2023-11-22T03:48:48;98317.22;;;12.20;100.00
12799;BME280;19250;42.646;26.980;2023-11-22T03:51:17;98323.69;;;11.59;100.00
12799;BME280;19250;42.646;26.980;2023-11-22T03:53:44;98326.38;;;11.59;100.00
12799;BME280;19250;42.646;26.980;2023-11-22T03:56:11;98319.84;;;11.61;100.00
12799;BME280;19250;42.646;26.980;2023-11-22T03:58:39;98322.66;;;11.60;100.00
12799;BME280;19250;42.646;26.980;2023-11-22T04:01:06;98316.00;;;11.78;100.00
12799;BME280;19250;42.646;26.980;2023-11-22T04:03:33;98314.53;;;11.90;100.00
12799;BME280;19250;42.646;26.980;2023-11-22T04:06:00;98316.19;;;11.91;100.00
12799;BME280;19250;42.646;26.980;2023-11-22T04:08:29;98320.72;;;11.76;100.00
12799;BME280;19250;42.646;26.980;2023-11-22T04:10:56;98320.56;;;11.55;100.00
12799;BME280;19250;42.646;26.980;2023-11-22T04:13:23;98321.66;;;11.46;100.00
12799;BME280;19250;42.646;26.980;2023-11-22T04:15:50;98317.47;;;11.81;100.00
12799;BME280;19250;42.646;26.980;2023-11-22T04:18:17;98326.31;;;11.81;100.00
12799;BME280;19250;42.646;26.980;2023-11-22T04:20:44;98324.41;;;12.05;100.00
12799;BME280;19250;42.646;26.980;2023-11-22T04:23:12;98325.53;;;11.95;100.00
12799;BME280;19250;42.646;26.980;2023-11-22T04:25:42;98327.72;;;12.07;100.00
12799;BME280;19250;42.646;26.980;2023-11-22T04:28:09;98323.38;;;11.91;100.00
12799;BME280;19250;42.646;26.980;2023-11-22T04:30:36;98330.19;;;12.08;100.00
12799;BME280;19250;42.646;26.980;2023-11-22T04:33:03;98334.44;;;12.02;100.00
12799;BME280;19250;42.646;26.980;2023-11-22T04:35:30;98332.97;;;11.85;100.00
12799;BME280;19250;42.646;26.980;2023-11-22T04:38:01;98347.63;;;11.52;100.00
12799;BME280;19250;42.646;26.980;2023-11-22T04:40:29;98348.34;;;11.46;100.00
12799;BME280;19250;42.646;26.980;2023-11-22T04:42:57;98349.38;;;11.60;100.00
12799;BME280;19250;42.646;26.980;2023-11-22T04:45:24;98348.16;;;11.70;100.00
12799;BME280;19250;42.646;26.980;2023-11-22T04:47:51;98349.13;;;11.69;100.00
12799;BME280;19250;42.646;26.980;2023-11-22T04:50:18;98361.44;;;11.56;100.00
12799;BME280;19250;42.646;26.980;2023-11-22T04:52:45;98369.97;;;11.74;100.00
12799;BME280;19250;42.646;26.980;2023-11-22T04:55:12;98369.72;;;11.61;100.00
12799;BME280;19250;42.646;26.980;2023-11-22T04:57:39;98373.41;;;11.82;100.00
12799;BME280;19250;42.646;26.980;2023-11-22T05:00:08;98366.31;;;11.89;100.00
12799;BME280;19250;42.646;26.980;2023-11-22T05:02:36;98376.06;;;11.82;100.00
12799;BME280;19250;42.646;26.980;2023-11-22T05:05:03;98375.44;;;12.10;100.00
12799;BME280;19250;42.646;26.980;2023-11-22T05:07:30;98379.41;;;12.28;100.00
12799;BME280;19250;42.646;26.980;2023-11-22T05:09:57;98378.13;;;12.24;100.00
12799;BME280;19250;42.646;26.980;2023-11-22T05:12:24;98382.63;;;12.24;100.00
12799;BME280;19250;42.646;26.980;2023-11-22T05:14:51;98387.06;;;12.17;100.00
12799;BME280;19250;42.646;26.980;2023-11-22T05:17:19;98398.97;;;12.29;100.00
12799;BME280;19250;42.646;26.980;2023-11-22T05:19:46;98399.31;;;12.55;100.00
12799;BME280;19250;42.646;26.980;2023-11-22T05:22:13;98409.09;;;12.63;100.00
12799;BME280;19250;42.646;26.980;2023-11-22T05:24:40;98409.94;;;12.34;100.00
12799;BME280;19250;42.646;26.980;2023-11-22T05:27:07;98404.22;;;12.37;100.00
12799;BME280;19250;42.646;26.980;2023-11-22T05:29:34;98407.97;;;12.42;100.00
12799;BME280;19250;42.646;26.980;2023-11-22T05:32:01;98420.38;;;11.91;100.00
12799;BME280;19250;42.646;26.980;2023-11-22T05:34:30;98417.31;;;11.57;100.00
12799;BME280;19250;42.646;26.980;2023-11-22T05:36:57;98413.34;;;11.53;100.00
12799;BME280;19250;42.646;26.980;2023-11-22T05:39:24;98414.69;;;11.94;100.00
12799;BME280;19250;42.646;26.980;2023-11-22T05:41:51;98413.03;;;12.08;100.00
12799;BME280;19250;42.646;26.980;2023-11-22T05:44:19;98414.25;;;12.20;100.00
12799;BME280;19250;42.646;26.980;2023-11-22T05:46:46;98423.84;;;12.44;100.00
12799;BME280;19250;42.646;26.980;2023-11-22T05:49:12;98425.06;;;12.56;100.00
12799;BME280;19250;42.646;26.980;2023-11-22T05:51:41;98427.81;;;12.48;100.00
12799;BME280;19250;42.646;26.980;2023-11-22T05:54:08;98426.53;;;12.44;100.00
12799;BME280;19250;42.646;26.980;2023-11-22T05:56:37;98426.75;;;12.78;100.00
12799;BME280;19250;42.646;26.980;2023-11-22T05:59:05;98427.47;;;13.01;100.00
12799;BME280;19250;42.646;26.980;2023-11-22T06:01:32;98427.84;;;12.98;100.00
12799;BME280;19250;42.646;26.980;2023-11-22T06:03:59;98438.47;;;12.92;100.00
12799;BME280;19250;42.646;26.980;2023-11-22T06:06:26;98437.44;;;13.07;100.00
12799;BME280;19250;42.646;26.980;2023-11-22T06:08:55;98435.03;;;13.13;100.00
12799;BME280;19250;42.646;26.980;2023-11-22T06:11:22;98442.41;;;13.46;100.00
12799;BME280;19250;42.646;26.980;2023-11-22T06:13:50;98449.22;;;13.70;100.00
12799;BME280;19250;42.646;26.980;2023-11-22T06:16:17;98462.25;;;13.52;100.00
12799;BME280;19250;42.646;26.980;2023-11-22T06:18:44;98462.06;;;13.53;100.00
12799;BME280;19250;42.646;26.980;2023-11-22T06:21:12;98459.31;;;13.47;100.00
12799;BME280;19250;42.646;26.980;2023-11-22T06:23:39;98475.47;;;13.75;100.00
12799;BME280;19250;42.646;26.980;2023-11-22T06:26:07;98464.03;;;13.87;100.00
12799;BME280;19250;42.646;26.980;2023-11-22T06:28:34;98465.75;;;13.95;100.00
12799;BME280;19250;42.646;26.980;2023-11-22T06:31:01;98467.97;;;13.91;100.00
12799;BME280;19250;42.646;26.980;2023-11-22T06:33:29;98464.16;;;14.00;100.00
12799;BME280;19250;42.646;26.980;2023-11-22T06:35:56;98460.59;;;13.93;100.00
12799;BME280;19250;42.646;26.980;2023-11-22T06:38:23;98460.16;;;13.90;100.00
12799;BME280;19250;42.646;26.980;2023-11-22T06:40:50;98457.59;;;13.82;100.00
12799;BME280;19250;42.646;26.980;2023-11-22T06:43:18;98466.19;;;13.98;100.00
12799;BME280;19250;42.646;26.980;2023-11-22T06:45:45;98475.72;;;13.80;100.00
12799;BME280;19250;42.646;26.980;2023-11-22T06:48:12;98466.31;;;14.11;100.00
12799;BME280;19250;42.646;26.980;2023-11-22T06:50:39;98472.09;;;14.36;100.00
12799;BME280;19250;42.646;26.980;2023-11-22T06:53:07;98476.09;;;14.47;100.00
12799;BME280;19250;42.646;26.980;2023-11-22T06:55:34;98483.84;;;14.63;100.00
12799;BME280;19250;42.646;26.980;2023-11-22T06:58:01;98470.94;;;13.96;100.00
12799;BME280;19250;42.646;26.980;2023-11-22T07:00:30;98473.72;;;13.88;100.00
12799;BME280;19250;42.646;26.980;2023-11-22T07:02:58;98475.09;;;13.78;100.00
12799;BME280;19250;42.646;26.980;2023-11-22T07:05:25;98468.22;;;14.17;100.00
12799;BME280;19250;42.646;26.980;2023-11-22T07:07:52;98469.78;;;14.61;100.00
12799;BME280;19250;42.646;26.980;2023-11-22T07:10:21;98476.44;;;14.71;100.00
12799;BME280;19250;42.646;26.980;2023-11-22T07:12:48;98482.41;;;15.08;100.00
12799;BME280;19250;42.646;26.980;2023-11-22T07:15:15;98493.31;;;15.41;100.00
12799;BME280;19250;42.646;26.980;2023-11-22T07:17:43;98489.94;;;14.85;100.00
12799;BME280;19250;42.646;26.980;2023-11-22T07:20:10;98494.13;;;14.59;100.00
12799;BME280;19250;42.646;26.980;2023-11-22T07:22:41;98491.72;;;14.43;100.00
12799;BME280;19250;42.646;26.980;2023-11-22T07:25:09;98498.59;;;14.46;100.00
12799;BME280;19250;42.646;26.980;2023-11-22T07:27:43;98491.78;;;14.50;100.00
12799;BME280;19250;42.646;26.980;2023-11-22T07:30:11;98495.19;;;14.65;100.00
12799;BME280;19250;42.646;26.980;2023-11-22T07:32:38;98501.59;;;15.46;100.00
12799;BME280;19250;42.646;26.980;2023-11-22T07:35:08;98501.53;;;16.06;100.00
12799;BME280;19250;42.646;26.980;2023-11-22T07:37:35;98509.63;;;16.59;100.00
12799;BME280;19250;42.646;26.980;2023-11-22T07:40:05;98503.19;;;16.73;100.00
12799;BME280;19250;42.646;26.980;2023-11-22T07:42:33;98509.13;;;17.01;100.00
12799;BME280;19250;42.646;26.980;2023-11-22T07:45:00;98516.53;;;17.19;100.00
12799;BME280;19250;42.646;26.980;2023-11-22T07:47:27;98530.94;;;16.73;100.00
12799;BME280;19250;42.646;26.980;2023-11-22T07:49:55;98535.25;;;16.15;100.00
12799;BME280;19250;42.646;26.980;2023-11-22T07:52:23;98535.66;;;16.91;100.00
12799;BME280;19250;42.646;26.980;2023-11-22T07:54:55;98534.63;;;16.99;100.00
12799;BME280;19250;42.646;26.980;2023-11-22T07:57:22;98536.53;;;16.65;100.00
12799;BME280;19250;42.646;26.980;2023-11-22T07:59:49;98530.13;;;16.60;100.00
12799;BME280;19250;42.646;26.980;2023-11-22T08:02:19;98528.66;;;16.64;100.00
12799;BME280;19250;42.646;26.980;2023-11-22T08:04:47;98539.00;;;16.54;100.00
12799;BME280;19250;42.646;26.980;2023-11-22T08:07:15;98533.44;;;16.68;100.00
12799;BME280;19250;42.646;26.980;2023-11-22T08:09:44;98532.13;;;16.97;100.00
12799;BME280;19250;42.646;26.980;2023-11-22T08:12:11;98530.19;;;17.30;100.00
12799;BME280;19250;42.646;26.980;2023-11-22T08:14:38;98543.44;;;17.25;100.00
12799;BME280;19250;42.646;26.980;2023-11-22T08:17:06;98548.66;;;15.89;100.00
12799;BME280;19250;42.646;26.980;2023-11-22T08:19:33;98555.03;;;15.75;100.00
12799;BME280;19250;42.646;26.980;2023-11-22T08:22:00;98560.31;;;16.22;100.00
12799;BME280;19250;42.646;26.980;2023-11-22T08:24:29;98571.28;;;16.34;100.00
12799;BME280;19250;42.646;26.980;2023-11-22T08:26:57;98560.88;;;17.23;100.00
12799;BME280;19250;42.646;26.980;2023-11-22T08:29:25;98560.34;;;17.65;100.00
12799;BME280;19250;42.646;26.980;2023-11-22T08:31:52;98564.41;;;17.81;100.00
12799;BME280;19250;42.646;26.980;2023-11-22T08:34:19;98572.16;;;16.94;100.00
12799;BME280;19250;42.646;26.980;2023-11-22T08:36:46;98566.31;;;17.03;100.00
12799;BME280;19250;42.646;26.980;2023-11-22T08:39:13;98560.66;;;18.51;100.00
12799;BME280;19250;42.646;26.980;2023-11-22T08:41:40;98561.56;;;19.67;100.00
12799;BME280;19250;42.646;26.980;2023-11-22T08:44:08;98563.53;;;20.20;95.07
12799;BME280;19250;42.646;26.980;2023-11-22T08:46:35;98571.72;;;19.53;91.55
12799;BME280;19250;42.646;26.980;2023-11-22T08:49:02;98569.72;;;19.24;96.61
12799;BME280;19250;42.646;26.980;2023-11-22T08:51:29;98565.69;;;19.70;90.79
12799;BME280;19250;42.646;26.980;2023-11-22T08:53:56;98581.06;;;19.33;92.69
12799;BME280;19250;42.646;26.980;2023-11-22T08:56:23;98580.28;;;18.33;100.00
12799;BME280;19250;42.646;26.980;2023-11-22T08:58:50;98568.72;;;18.20;100.00
12799;BME280;19250;42.646;26.980;2023-11-22T09:01:19;98575.09;;;18.01;100.00
12799;BME280;19250;42.646;26.980;2023-11-22T09:03:47;98563.69;;;17.54;100.00
12799;BME280;19250;42.646;26.980;2023-11-22T09:06:15;98561.84;;;17.55;100.00
12799;BME280;19250;42.646;26.980;2023-11-22T09:08:42;98573.63;;;17.60;100.00
12799;BME280;19250;42.646;26.980;2023-11-22T09:11:11;98575.34;;;17.41;100.00
12799;BME280;19250;42.646;26.980;2023-11-22T09:13:38;98574.91;;;17.45;100.00
12799;BME280;19250;42.646;26.980;2023-11-22T09:16:05;98581.25;;;16.79;100.00
12799;BME280;19250;42.646;26.980;2023-11-22T09:18:36;98575.00;;;16.33;100.00
12799;BME280;19250;42.646;26.980;2023-11-22T09:21:03;98567.94;;;16.12;100.00
12799;BME280;19250;42.646;26.980;2023-11-22T09:23:30;98573.78;;;16.36;100.00
12799;BME280;19250;42.646;26.980;2023-11-22T09:25:57;98565.06;;;16.14;100.00
12799;BME280;19250;42.646;26.980;2023-11-22T09:28:25;98571.16;;;15.75;100.00
12799;BME280;19250;42.646;26.980;2023-11-22T09:30:52;98570.50;;;15.66;100.00
12799;BME280;19250;42.646;26.980;2023-11-22T09:33:26;98572.63;;;15.71;100.00
12799;BME280;19250;42.646;26.980;2023-11-22T09:35:55;98558.31;;;15.64;100.00
12799;BME280;19250;42.646;26.980;2023-11-22T09:38:23;98556.97;;;15.47;100.00
12799;BME280;19250;42.646;26.980;2023-11-22T09:40:50;98563.38;;;15.46;100.00
12799;BME280;19250;42.646;26.980;2023-11-22T09:43:18;98550.06;;;15.72;100.00
12799;BME280;19250;42.646;26.980;2023-11-22T09:45:45;98556.03;;;15.61;100.00
12799;BME280;19250;42.646;26.980;2023-11-22T09:48:14;98555.03;;;15.75;100.00
12799;BME280;19250;42.646;26.980;2023-11-22T09:50:44;98557.13;;;15.79;100.00
12799;BME280;19250;42.646;26.980;2023-11-22T09:53:19;98560.88;;;15.92;100.00
12799;BME280;19250;42.646;26.980;2023-11-22T09:55:46;98552.50;;;15.60;100.00
12799;BME280;19250;42.646;26.980;2023-11-22T09:58:13;98559.31;;;15.50;100.00
12799;BME280;19250;42.646;26.980;2023-11-22T10:00:42;98560.25;;;15.42;100.00
12799;BME280;19250;42.646;26.980;2023-11-22T10:03:09;98565.13;;;15.66;100.00
12799;BME280;19250;42.646;26.980;2023-11-22T10:05:39;98565.16;;;15.73;100.00
12799;BME280;19250;42.646;26.980;2023-11-22T10:08:06;98564.13;;;15.67;100.00
12799;BME280;19250;42.646;26.980;2023-11-22T10:10:36;98560.16;;;15.63;100.00
12799;BME280;19250;42.646;26.980;2023-11-22T10:13:05;98562.06;;;15.76;100.00
12799;BME280;19250;42.646;26.980;2023-11-22T10:15:32;98558.38;;;15.90;100.00
12799;BME280;19250;42.646;26.980;2023-11-22T10:17:59;98560.72;;;16.19;100.00
12799;BME280;19250;42.646;26.980;2023-11-22T10:20:36;98572.31;;;16.20;100.00
12799;BME280;19250;42.646;26.980;2023-11-22T10:23:03;98569.91;;;15.71;100.00
12799;BME280;19250;42.646;26.980;2023-11-22T10:25:30;98573.34;;;15.52;100.00
12799;BME280;19250;42.646;26.980;2023-11-22T10:27:59;98573.09;;;15.47;100.00
12799;BME280;19250;42.646;26.980;2023-11-22T10:30:27;98567.63;;;15.68;100.00
12799;BME280;19250;42.646;26.980;2023-11-22T10:32:55;98575.22;;;16.31;100.00
12799;BME280;19250;42.646;26.980;2023-11-22T10:35:22;98570.94;;;16.63;100.00
12799;BME280;19250;42.646;26.980;2023-11-22T10:37:49;98578.16;;;16.89;100.00
12799;BME280;19250;42.646;26.980;2023-11-22T10:40:16;98578.75;;;16.98;100.00
12799;BME280;19250;42.646;26.980;2023-11-22T10:42:43;98579.16;;;17.14;100.00
12799;BME280;19250;42.646;26.980;2023-11-22T10:45:12;98578.31;;;17.20;100.00
12799;BME280;19250;42.646;26.980;2023-11-22T10:47:40;98583.03;;;17.25;100.00
12799;BME280;19250;42.646;26.980;2023-11-22T10:50:09;98580.34;;;17.31;100.00
12799;BME280;19250;42.646;26.980;2023-11-22T10:52:39;98577.44;;;17.26;100.00
12799;BME280;19250;42.646;26.980;2023-11-22T10:55:07;98583.69;;;17.27;100.00
12799;BME280;19250;42.646;26.980;2023-11-22T10:57:36;98589.75;;;16.96;100.00
12799;BME280;19250;42.646;26.980;2023-11-22T11:00:07;98596.75;;;17.10;100.00
12799;BME280;19250;42.646;26.980;2023-11-22T11:02:40;98586.38;;;17.27;100.00
12799;BME280;19250;42.646;26.980;2023-11-22T11:05:11;98587.13;;;17.47;100.00
12799;BME280;19250;42.646;26.980;2023-11-22T11:07:44;98581.56;;;17.35;100.00
12799;BME280;19250;42.646;26.980;2023-11-22T11:10:15;98585.34;;;17.21;100.00
12799;BME280;19250;42.646;26.980;2023-11-22T11:12:42;98586.22;;;17.09;100.00
12799;BME280;19250;42.646;26.980;2023-11-22T11:15:11;98592.00;;;17.12;100.00
12799;BME280;19250;42.646;26.980;2023-11-22T11:17:40;98582.69;;;16.88;100.00
12799;BME280;19250;42.646;26.980;2023-11-22T11:20:07;98587.88;;;16.97;100.00
12799;BME280;19250;42.646;26.980;2023-11-22T11:22:38;98585.84;;;16.72;100.00
12799;BME280;19250;42.646;26.980;2023-11-22T11:25:06;98592.84;;;16.93;100.00
12799;BME280;19250;42.646;26.980;2023-11-22T11:27:33;98599.03;;;17.07;100.00
12799;BME280;19250;42.646;26.980;2023-11-22T11:30:01;98596.97;;;17.09;100.00
12799;BME280;19250;42.646;26.980;2023-11-22T11:32:32;98603.56;;;17.19;100.00
12799;BME280;19250;42.646;26.980;2023-11-22T11:35:01;98602.16;;;17.04;100.00
12799;BME280;19250;42.646;26.980;2023-11-22T11:37:32;98608.19;;;16.86;100.00
12799;BME280;19250;42.646;26.980;2023-11-22T11:39:59;98605.03;;;16.43;100.00
12799;BME280;19250;42.646;26.980;2023-11-22T11:42:25;98607.31;;;16.53;100.00
12799;BME280;19250;42.646;26.980;2023-11-22T11:45:05;98612.72;;;16.79;100.00
12799;BME280;19250;42.646;26.980;2023-11-22T11:47:33;98604.47;;;16.94;100.00
12799;BME280;19250;42.646;26.980;2023-11-22T11:50:01;98614.81;;;16.90;100.00
12799;BME280;19250;42.646;26.980;2023-11-22T11:52:30;98613.16;;;16.96;100.00
12799;BME280;19250;42.646;26.980;2023-11-22T11:54:57;98615.66;;;16.84;100.00
12799;BME280;19250;42.646;26.980;2023-11-22T11:57:25;98621.44;;;16.94;100.00
12799;BME280;19250;42.646;26.980;2023-11-22T11:59:52;98622.69;;;16.85;100.00
12799;BME280;19250;42.646;26.980;2023-11-22T12:02:21;98622.25;;;16.88;100.00
12799;BME280;19250;42.646;26.980;2023-11-22T12:04:48;98615.22;;;17.00;100.00
12799;BME280;19250;42.646;26.980;2023-11-22T12:07:16;98612.50;;;17.07;100.00
12799;BME280;19250;42.646;26.980;2023-11-22T12:09:43;98619.78;;;16.80;100.00
12799;BME280;19250;42.646;26.980;2023-11-22T12:12:12;98624.75;;;16.76;100.00
12799;BME280;19250;42.646;26.980;2023-11-22T12:14:39;98635.53;;;16.83;100.00
12799;BME280;19250;42.646;26.980;2023-11-22T12:17:06;98646.31;;;16.83;100.00
12799;BME280;19250;42.646;26.980;2023-11-22T12:19:33;98640.72;;;16.78;100.00
12799;BME280;19250;42.646;26.980;2023-11-22T12:22:00;98622.69;;;16.72;100.00
12799;BME280;19250;42.646;26.980;2023-11-22T12:24:29;98631.53;;;16.40;100.00
12799;BME280;19250;42.646;26.980;2023-11-22T12:26:56;98638.34;;;16.22;100.00
12799;BME280;19250;42.646;26.980;2023-11-22T12:29:23;98624.19;;;15.94;100.00
12799;BME280;19250;42.646;26.980;2023-11-22T12:31:50;98615.94;;;16.02;100.00
12799;BME280;19250;42.646;26.980;2023-11-22T12:34:18;98622.75;;;15.98;100.00
12799;BME280;19250;42.646;26.980;2023-11-22T12:36:45;98634.09;;;15.94;100.00
12799;BME280;19250;42.646;26.980;2023-11-22T12:39:12;98643.91;;;16.21;100.00
12799;BME280;19250;42.646;26.980;2023-11-22T12:41:47;98649.94;;;16.23;100.00
12799;BME280;19250;42.646;26.980;2023-11-22T12:44:15;98656.97;;;16.17;100.00